BOD weather

Bordeaux-Mérignac Airport
Bordeaux/Mérignac, Aquitaine, France

Public forecast

Using degrees Celsius for public forecast. Weather courtesy of forecast.io.

METAR (pilot weather report)

Retrieved 2019/05/24 02:30 UTC (0 seconds ago):

LFBD 240230Z AUTO 27007KT 8000 BKN005 BKN016 OVC070 15/14 Q1017 TEMPO 4000 -RA BKN005 SCT030TCU

TAF (pilot weather forecast)

Forecast is more than 12 hours old.

Retrieved 2019/05/23 00:21 UTC (1 day ago):

TAF LFBD 232300Z 2400/2506 29010KT 9999 BKN030 TX19/2415Z TN14/2500Z PROB40 2400/2404 3000 RA BKN005 SCT030TCU TEMPO 2404/2410 4000 -RA BKN013 TEMPO 2412/2417 4000 -SHRA FEW020CB BKN030TCU